sensor_id;sensor_type;location;lat;lon;timestamp;pressure;altitude;pressure_sealevel;temperature;humidity
55373;BME280;70018;47.838;16.490;2023-12-22T00:01:26;97241.16;;;5.59;100.00
55373;BME280;70018;47.838;16.490;2023-12-22T00:03:52;97225.97;;;5.58;100.00
55373;BME280;70018;47.838;16.490;2023-12-22T00:06:19;97204.91;;;5.62;100.00
55373;BME280;70018;47.838;16.490;2023-12-22T00:08:46;97208.03;;;5.64;100.00
55373;BME280;70018;47.838;16.490;2023-12-22T00:11:13;97235.38;;;5.67;100.00
55373;BME280;70018;47.838;16.490;2023-12-22T00:13:40;97247.09;;;5.75;100.00
55373;BME280;70018;47.838;16.490;2023-12-22T00:16:06;97251.44;;;5.83;100.00
55373;BME280;70018;47.838;16.490;2023-12-22T00:18:33;97251.06;;;5.84;100.00
55373;BME280;70018;47.838;16.490;2023-12-22T00:21:00;97264.34;;;5.86;98.78
55373;BME280;70018;47.838;16.490;2023-12-22T00:23:27;97277.56;;;5.84;98.14
55373;BME280;70018;47.838;16.490;2023-12-22T00:25:54;97286.94;;;5.83;96.70
55373;BME280;70018;47.838;16.490;2023-12-22T00:28:20;97305.63;;;5.81;96.21
55373;BME280;70018;47.838;16.490;2023-12-22T00:30:47;97321.28;;;5.84;94.77
55373;BME280;70018;47.838;16.490;2023-12-22T00:33:14;97334.53;;;5.82;87.56
55373;BME280;70018;47.838;16.490;2023-12-22T00:35:41;97324.75;;;5.77;86.98
55373;BME280;70018;47.838;16.490;2023-12-22T00:38:07;97340.63;;;5.61;86.99
55373;BME280;70018;47.838;16.490;2023-12-22T00:40:34;97368.13;;;5.35;87.95
55373;BME280;70018;47.838;16.490;2023-12-22T00:43:01;97377.44;;;4.90;90.75
55373;BME280;70018;47.838;16.490;2023-12-22T00:45:28;97350.41;;;4.41;94.37
55373;BME280;70018;47.838;16.490;2023-12-22T00:47:54;97329.59;;;4.26;95.97
55373;BME280;70018;47.838;16.490;2023-12-22T00:50:21;97341.34;;;4.30;97.59
55373;BME280;70018;47.838;16.490;2023-12-22T00:52:48;97349.50;;;4.30;98.96
55373;BME280;70018;47.838;16.490;2023-12-22T00:55:15;97325.00;;;4.30;98.48
55373;BME280;70018;47.838;16.490;2023-12-22T00:57:42;97289.59;;;4.34;97.84
55373;BME280;70018;47.838;16.490;2023-12-22T01:00:09;97262.44;;;4.41;96.20
55373;BME280;70018;47.838;16.490;2023-12-22T01:02:38;97260.06;;;4.39;96.46
55373;BME280;70018;47.838;16.490;2023-12-22T01:05:05;97280.28;;;4.35;96.43
55373;BME280;70018;47.838;16.490;2023-12-22T01:07:32;97288.78;;;4.30;95.24
55373;BME280;70018;47.838;16.490;2023-12-22T01:09:59;97288.72;;;4.26;95.17
55373;BME280;70018;47.838;16.490;2023-12-22T01:12:28;97276.31;;;4.29;94.99
55373;BME280;70018;47.838;16.490;2023-12-22T01:14:56;97269.22;;;4.21;95.25
55373;BME280;70018;47.838;16.490;2023-12-22T01:17:23;97260.28;;;4.20;94.59
55373;BME280;70018;47.838;16.490;2023-12-22T01:19:50;97270.44;;;4.27;93.30
55373;BME280;70018;47.838;16.490;2023-12-22T01:22:18;97296.56;;;4.31;92.94
55373;BME280;70018;47.838;16.490;2023-12-22T01:24:45;97309.47;;;4.34;92.51
55373;BME280;70018;47.838;16.490;2023-12-22T01:27:12;97312.59;;;4.36;91.87
55373;BME280;70018;47.838;16.490;2023-12-22T01:29:39;97301.75;;;4.40;92.44
55373;BME280;70018;47.838;16.490;2023-12-22T01:32:06;97310.44;;;4.52;91.93
55373;BME280;70018;47.838;16.490;2023-12-22T01:34:33;97265.41;;;4.66;92.00
55373;BME280;70018;47.838;16.490;2023-12-22T01:37:00;97301.25;;;4.68;91.50
55373;BME280;70018;47.838;16.490;2023-12-22T01:39:26;97256.16;;;4.77;90.75
55373;BME280;70018;47.838;16.490;2023-12-22T01:41:53;97243.47;;;4.99;85.90
55373;BME280;70018;47.838;16.490;2023-12-22T01:44:20;97250.59;;;5.10;86.27
55373;BME280;70018;47.838;16.490;2023-12-22T01:46:46;97280.66;;;5.17;84.14
55373;BME280;70018;47.838;16.490;2023-12-22T01:49:14;97270.59;;;5.29;83.47
55373;BME280;70018;47.838;16.490;2023-12-22T01:51:41;97271.81;;;5.35;82.33
55373;BME280;70018;47.838;16.490;2023-12-22T01:54:10;97222.72;;;5.42;82.48
55373;BME280;70018;47.838;16.490;2023-12-22T01:56:37;97246.16;;;5.43;81.80
55373;BME280;70018;47.838;16.490;2023-12-22T01:59:04;97225.78;;;5.30;82.31
55373;BME280;70018;47.838;16.490;2023-12-22T02:01:31;97252.19;;;5.18;83.01
55373;BME280;70018;47.838;16.490;2023-12-22T02:03:59;97278.28;;;5.12;82.43
55373;BME280;70018;47.838;16.490;2023-12-22T02:06:26;97295.00;;;5.07;82.67
55373;BME280;70018;47.838;16.490;2023-12-22T02:08:53;97299.22;;;4.98;82.82
55373;BME280;70018;47.838;16.490;2023-12-22T02:11:20;97294.03;;;4.86;83.29
55373;BME280;70018;47.838;16.490;2023-12-22T02:13:47;97310.53;;;5.00;83.43
55373;BME280;70018;47.838;16.490;2023-12-22T02:16:33;97302.13;;;5.22;83.38
55373;BME280;70018;47.838;16.490;2023-12-22T02:22:04;97302.19;;;5.30;83.76
55373;BME280;70018;47.838;16.490;2023-12-22T02:24:35;97318.22;;;5.35;83.44
55373;BME280;70018;47.838;16.490;2023-12-22T02:27:05;97317.81;;;5.33;83.54
55373;BME280;70018;47.838;16.490;2023-12-22T02:29:36;97320.56;;;5.36;83.87
55373;BME280;70018;47.838;16.490;2023-12-22T02:32:07;97318.59;;;5.33;83.46
55373;BME280;70018;47.838;16.490;2023-12-22T02:34:37;97306.19;;;5.43;81.51
55373;BME280;70018;47.838;16.490;2023-12-22T02:37:07;97312.47;;;5.50;81.77
55373;BME280;70018;47.838;16.490;2023-12-22T02:39:35;97315.66;;;5.56;81.00
55373;BME280;70018;47.838;16.490;2023-12-22T02:42:04;97317.94;;;5.50;79.54
55373;BME280;70018;47.838;16.490;2023-12-22T02:44:32;97297.75;;;5.65;72.47
55373;BME280;70018;47.838;16.490;2023-12-22T02:46:59;97297.81;;;5.76;72.08
55373;BME280;70018;47.838;16.490;2023-12-22T02:49:26;97293.91;;;5.77;73.20
55373;BME280;70018;47.838;16.490;2023-12-22T02:51:52;97343.50;;;5.82;71.71
55373;BME280;70018;47.838;16.490;2023-12-22T02:54:19;97364.63;;;5.86;71.16
55373;BME280;70018;47.838;16.490;2023-12-22T02:56:48;97346.28;;;5.86;73.38
55373;BME280;70018;47.838;16.490;2023-12-22T02:59:15;97359.47;;;5.77;71.59
55373;BME280;70018;47.838;16.490;2023-12-22T03:01:42;97358.59;;;5.66;71.98
55373;BME280;70018;47.838;16.490;2023-12-22T03:04:09;97399.06;;;5.50;72.61
55373;BME280;70018;47.838;16.490;2023-12-22T03:06:35;97416.53;;;5.42;73.34
55373;BME280;70018;47.838;16.490;2023-12-22T03:09:02;97406.69;;;5.30;74.44
55373;BME280;70018;47.838;16.490;2023-12-22T03:11:29;97407.69;;;5.15;76.74
55373;BME280;70018;47.838;16.490;2023-12-22T03:13:55;97379.91;;;5.02;77.80
55373;BME280;70018;47.838;16.490;2023-12-22T03:16:22;97359.56;;;4.93;79.07
55373;BME280;70018;47.838;16.490;2023-12-22T03:18:49;97344.22;;;4.81;78.89
55373;BME280;70018;47.838;16.490;2023-12-22T03:21:19;97324.28;;;4.74;79.24
55373;BME280;70018;47.838;16.490;2023-12-22T03:23:46;97328.84;;;4.63;80.92
55373;BME280;70018;47.838;16.490;2023-12-22T03:26:12;97341.75;;;4.66;80.09
55373;BME280;70018;47.838;16.490;2023-12-22T03:28:39;97344.53;;;4.73;79.25
55373;BME280;70018;47.838;16.490;2023-12-22T03:31:06;97355.47;;;4.76;78.09
55373;BME280;70018;47.838;16.490;2023-12-22T03:33:34;97354.72;;;4.79;77.89
55373;BME280;70018;47.838;16.490;2023-12-22T03:36:00;97336.38;;;4.76;76.43
55373;BME280;70018;47.838;16.490;2023-12-22T03:38:27;97327.41;;;4.72;76.71
55373;BME280;70018;47.838;16.490;2023-12-22T03:40:54;97326.19;;;4.66;77.38
55373;BME280;70018;47.838;16.490;2023-12-22T03:43:20;97321.06;;;4.61;76.84
55373;BME280;70018;47.838;16.490;2023-12-22T03:45:47;97319.47;;;4.60;77.72
55373;BME280;70018;47.838;16.490;2023-12-22T03:48:14;97322.16;;;4.56;76.87
55373;BME280;70018;47.838;16.490;2023-12-22T03:50:41;97342.34;;;4.48;76.79
55373;BME280;70018;47.838;16.490;2023-12-22T03:53:07;97327.06;;;4.44;77.47
55373;BME280;70018;47.838;16.490;2023-12-22T03:55:34;97325.84;;;4.38;77.23
55373;BME280;70018;47.838;16.490;2023-12-22T03:58:00;97343.34;;;4.37;77.41
55373;BME280;70018;47.838;16.490;2023-12-22T04:00:27;97349.97;;;4.36;77.90
55373;BME280;70018;47.838;16.490;2023-12-22T04:02:54;97360.44;;;4.34;78.33
55373;BME280;70018;47.838;16.490;2023-12-22T04:05:23;97343.44;;;4.44;78.41
55373;BME280;70018;47.838;16.490;2023-12-22T04:07:50;97344.47;;;4.32;77.71
55373;BME280;70018;47.838;16.490;2023-12-22T04:10:17;97318.91;;;4.11;78.35
55373;BME280;70018;47.838;16.490;2023-12-22T04:12:44;97330.88;;;4.03;78.61
55373;BME280;70018;47.838;16.490;2023-12-22T04:15:11;97316.78;;;3.97;78.93
55373;BME280;70018;47.838;16.490;2023-12-22T04:17:39;97328.78;;;3.92;78.23
55373;BME280;70018;47.838;16.490;2023-12-22T04:20:06;97320.63;;;3.92;78.56
55373;BME280;70018;47.838;16.490;2023-12-22T04:22:33;97334.88;;;3.82;78.95
55373;BME280;70018;47.838;16.490;2023-12-22T04:25:00;97348.81;;;3.77;78.83
55373;BME280;70018;47.838;16.490;2023-12-22T04:27:27;97351.69;;;3.88;79.64
55373;BME280;70018;47.838;16.490;2023-12-22T04:29:54;97350.63;;;3.96;79.41
55373;BME280;70018;47.838;16.490;2023-12-22T04:32:20;97355.28;;;3.96;75.38
55373;BME280;70018;47.838;16.490;2023-12-22T04:34:47;97362.72;;;3.99;75.28
55373;BME280;70018;47.838;16.490;2023-12-22T04:37:14;97364.09;;;4.15;73.47
55373;BME280;70018;47.838;16.490;2023-12-22T04:39:40;97372.78;;;4.24;73.84
55373;BME280;70018;47.838;16.490;2023-12-22T04:42:07;97374.44;;;4.32;75.24
55373;BME280;70018;47.838;16.490;2023-12-22T04:44:33;97386.22;;;4.40;71.38
55373;BME280;70018;47.838;16.490;2023-12-22T04:47:01;97397.19;;;4.47;71.75
55373;BME280;70018;47.838;16.490;2023-12-22T04:49:27;97410.91;;;4.54;69.76
55373;BME280;70018;47.838;16.490;2023-12-22T04:51:54;97410.50;;;4.52;69.68
55373;BME280;70018;47.838;16.490;2023-12-22T04:54:23;97404.31;;;4.55;70.41
55373;BME280;70018;47.838;16.490;2023-12-22T04:56:50;97415.22;;;4.55;69.20
55373;BME280;70018;47.838;16.490;2023-12-22T04:59:17;97426.94;;;4.59;69.12
55373;BME280;70018;47.838;16.490;2023-12-22T05:01:44;97425.41;;;4.62;69.76
55373;BME280;70018;47.838;16.490;2023-12-22T05:04:12;97424.72;;;4.68;71.17
55373;BME280;70018;47.838;16.490;2023-12-22T05:06:38;97427.22;;;4.84;69.92
55373;BME280;70018;47.838;16.490;2023-12-22T05:09:05;97413.25;;;4.89;67.85
55373;BME280;70018;47.838;16.490;2023-12-22T05:11:32;97423.88;;;4.97;65.39
55373;BME280;70018;47.838;16.490;2023-12-22T05:13:59;97390.94;;;5.13;64.96
55373;BME280;70018;47.838;16.490;2023-12-22T05:16:27;97410.44;;;5.15;66.79
55373;BME280;70018;47.838;16.490;2023-12-22T05:18:58;97434.53;;;5.09;66.53
55373;BME280;70018;47.838;16.490;2023-12-22T05:21:25;97440.31;;;5.04;64.54
55373;BME280;70018;47.838;16.490;2023-12-22T05:23:51;97444.66;;;5.09;66.23
55373;BME280;70018;47.838;16.490;2023-12-22T05:26:19;97417.41;;;5.12;64.05
55373;BME280;70018;47.838;16.490;2023-12-22T05:28:46;97389.34;;;5.08;61.90
55373;BME280;70018;47.838;16.490;2023-12-22T05:31:13;97408.50;;;5.15;63.89
55373;BME280;70018;47.838;16.490;2023-12-22T05:33:40;97398.72;;;5.14;63.45
55373;BME280;70018;47.838;16.490;2023-12-22T05:36:08;97411.16;;;5.12;63.52
55373;BME280;70018;47.838;16.490;2023-12-22T05:38:38;97402.97;;;5.08;63.70
55373;BME280;70018;47.838;16.490;2023-12-22T05:41:06;97416.59;;;5.08;63.99
55373;BME280;70018;47.838;16.490;2023-12-22T05:43:36;97427.59;;;5.15;61.57
55373;BME280;70018;47.838;16.490;2023-12-22T05:46:03;97424.88;;;5.19;63.02
55373;BME280;70018;47.838;16.490;2023-12-22T05:48:29;97424.53;;;5.24;61.50
55373;BME280;70018;47.838;16.490;2023-12-22T05:50:56;97406.63;;;5.23;64.42
55373;BME280;70018;47.838;16.490;2023-12-22T05:53:24;97417.56;;;5.27;63.93
55373;BME280;70018;47.838;16.490;2023-12-22T05:55:50;97416.75;;;5.22;63.35
55373;BME280;70018;47.838;16.490;2023-12-22T05:58:17;97427.59;;;5.15;61.28
55373;BME280;70018;47.838;16.490;2023-12-22T06:00:44;97432.28;;;5.18;60.72
55373;BME280;70018;47.838;16.490;2023-12-22T06:03:11;97421.75;;;5.17;62.52
55373;BME280;70018;47.838;16.490;2023-12-22T06:05:37;97415.81;;;5.08;63.72
55373;BME280;70018;47.838;16.490;2023-12-22T06:08:05;97443.03;;;5.01;64.49
55373;BME280;70018;47.838;16.490;2023-12-22T06:10:32;97424.97;;;4.89;64.68
55373;BME280;70018;47.838;16.490;2023-12-22T06:12:59;97440.66;;;4.99;63.67
55373;BME280;70018;47.838;16.490;2023-12-22T06:15:30;97441.91;;;5.05;62.14
55373;BME280;70018;47.838;16.490;2023-12-22T06:17:57;97448.56;;;5.11;62.52
55373;BME280;70018;47.838;16.490;2023-12-22T06:20:24;97446.28;;;5.13;63.45
55373;BME280;70018;47.838;16.490;2023-12-22T06:22:52;97451.75;;;5.13;61.90
55373;BME280;70018;47.838;16.490;2023-12-22T06:25:19;97471.94;;;5.09;62.62
55373;BME280;70018;47.838;16.490;2023-12-22T06:27:46;97477.38;;;5.09;63.20
55373;BME280;70018;47.838;16.490;2023-12-22T06:30:13;97444.25;;;5.07;64.77
55373;BME280;70018;47.838;16.490;2023-12-22T06:32:40;97459.41;;;5.01;64.89
55373;BME280;70018;47.838;16.490;2023-12-22T06:35:08;97454.28;;;4.96;64.64
55373;BME280;70018;47.838;16.490;2023-12-22T06:37:39;97439.78;;;4.88;65.74
55373;BME280;70018;47.838;16.490;2023-12-22T06:40:06;97462.25;;;4.78;66.41
55373;BME280;70018;47.838;16.490;2023-12-22T06:42:33;97466.44;;;4.72;67.19
55373;BME280;70018;47.838;16.490;2023-12-22T06:45:00;97476.94;;;4.70;66.90
55373;BME280;70018;47.838;16.490;2023-12-22T06:47:27;97456.69;;;4.71;67.63
55373;BME280;70018;47.838;16.490;2023-12-22T06:49:54;97480.41;;;4.67;68.13
55373;BME280;70018;47.838;16.490;2023-12-22T06:52:21;97471.41;;;4.63;68.38
55373;BME280;70018;47.838;16.490;2023-12-22T06:54:47;97485.38;;;4.62;68.85
55373;BME280;70018;47.838;16.490;2023-12-22T06:57:14;97481.41;;;4.55;68.82
55373;BME280;70018;47.838;16.490;2023-12-22T06:59:44;97472.13;;;4.60;69.33
55373;BME280;70018;47.838;16.490;2023-12-22T07:02:12;97462.75;;;4.57;69.44
55373;BME280;70018;47.838;16.490;2023-12-22T07:07:36;97472.03;;;4.53;70.73
55373;BME280;70018;47.838;16.490;2023-12-22T07:10:03;97480.94;;;4.50;69.99
55373;BME280;70018;47.838;16.490;2023-12-22T07:12:30;97512.03;;;4.45;70.75
55373;BME280;70018;47.838;16.490;2023-12-22T07:14:58;97516.31;;;4.46;70.30
55373;BME280;70018;47.838;16.490;2023-12-22T07:17:26;97501.63;;;4.51;70.46
55373;BME280;70018;47.838;16.490;2023-12-22T07:19:52;97474.59;;;4.69;71.16
55373;BME280;70018;47.838;16.490;2023-12-22T07:22:21;97459.75;;;4.66;70.84
55373;BME280;70018;47.838;16.490;2023-12-22T07:24:48;97459.66;;;4.59;71.11
55373;BME280;70018;47.838;16.490;2023-12-22T07:27:17;97472.88;;;4.57;71.88
55373;BME280;70018;47.838;16.490;2023-12-22T07:29:43;97472.94;;;4.64;72.28
55373;BME280;70018;47.838;16.490;2023-12-22T07:32:10;97492.47;;;4.66;70.75
55373;BME280;70018;47.838;16.490;2023-12-22T07:34:37;97485.66;;;4.83;70.63
55373;BME280;70018;47.838;16.490;2023-12-22T07:37:04;97452.97;;;4.86;69.45
55373;BME280;70018;47.838;16.490;2023-12-22T07:39:34;97452.28;;;4.93;69.96
55373;BME280;70018;47.838;16.490;2023-12-22T07:42:03;97458.56;;;4.97;68.73
55373;BME280;70018;47.838;16.490;2023-12-22T07:44:30;97484.28;;;4.99;67.13
55373;BME280;70018;47.838;16.490;2023-12-22T07:46:58;97491.75;;;5.02;67.56
55373;BME280;70018;47.838;16.490;2023-12-22T07:49:28;97480.56;;;5.14;67.10
55373;BME280;70018;47.838;16.490;2023-12-22T07:51:56;97489.75;;;5.33;67.50
55373;BME280;70018;47.838;16.490;2023-12-22T07:54:22;97491.81;;;5.46;66.09
55373;BME280;70018;47.838;16.490;2023-12-22T07:56:50;97505.97;;;5.59;66.17
55373;BME280;70018;47.838;16.490;2023-12-22T07:59:17;97508.09;;;5.76;65.83
55373;BME280;70018;47.838;16.490;2023-12-22T08:01:56;97518.31;;;5.82;63.10
55373;BME280;70018;47.838;16.490;2023-12-22T08:04:23;97502.28;;;5.77;63.31
55373;BME280;70018;47.838;16.490;2023-12-22T08:06:50;97515.19;;;5.84;64.86
55373;BME280;70018;47.838;16.490;2023-12-22T08:09:17;97522.69;;;5.87;63.75
55373;BME280;70018;47.838;16.490;2023-12-22T08:11:43;97523.13;;;5.96;64.73
55373;BME280;70018;47.838;16.490;2023-12-22T08:14:13;97507.22;;;6.05;65.40
55373;BME280;70018;47.838;16.490;2023-12-22T08:16:39;97517.47;;;6.19;65.26
55373;BME280;70018;47.838;16.490;2023-12-22T08:19:06;97521.75;;;6.16;65.79
55373;BME280;70018;47.838;16.490;2023-12-22T08:21:33;97504.16;;;6.14;65.95
55373;BME280;70018;47.838;16.490;2023-12-22T08:24:11;97529.09;;;6.05;64.94
55373;BME280;70018;47.838;16.490;2023-12-22T08:26:50;97533.72;;;6.01;66.40
55373;BME280;70018;47.838;16.490;2023-12-22T08:29:17;97538.50;;;6.11;66.04
55373;BME280;70018;47.838;16.490;2023-12-22T08:31:46;97535.47;;;6.23;66.27
55373;BME280;70018;47.838;16.490;2023-12-22T08:34:13;97535.47;;;6.23;62.25
55373;BME280;70018;47.838;16.490;2023-12-22T08:36:40;97561.31;;;6.33;60.22
55373;BME280;70018;47.838;16.490;2023-12-22T08:39:07;97555.13;;;6.39;59.15
55373;BME280;70018;47.838;16.490;2023-12-22T08:41:35;97532.50;;;6.46;60.05
55373;BME280;70018;47.838;16.490;2023-12-22T08:44:05;97545.06;;;6.51;60.74
55373;BME280;70018;47.838;16.490;2023-12-22T08:46:33;97566.94;;;6.51;57.02
55373;BME280;70018;47.838;16.490;2023-12-22T08:49:00;97552.88;;;6.52;59.39
55373;BME280;70018;47.838;16.490;2023-12-22T08:51:27;97558.28;;;6.45;56.41
55373;BME280;70018;47.838;16.490;2023-12-22T08:53:54;97564.56;;;6.45;59.61
55373;BME280;70018;47.838;16.490;2023-12-22T08:56:24;97572.31;;;6.40;59.59
55373;BME280;70018;47.838;16.490;2023-12-22T08:58:52;97570.69;;;6.32;58.86
55373;BME280;70018;47.838;16.490;2023-12-22T09:01:21;97569.19;;;6.38;59.14
55373;BME280;70018;47.838;16.490;2023-12-22T09:03:48;97532.03;;;6.33;60.38
55373;BME280;70018;47.838;16.490;2023-12-22T09:06:19;97555.56;;;6.45;58.49
55373;BME280;70018;47.838;16.490;2023-12-22T09:08:46;97554.16;;;6.72;58.62
55373;BME280;70018;47.838;16.490;2023-12-22T09:11:15;97529.47;;;6.62;56.73
55373;BME280;70018;47.838;16.490;2023-12-22T09:13:42;97545.59;;;6.81;57.32
55373;BME280;70018;47.838;16.490;2023-12-22T09:16:09;97545.72;;;6.98;57.09
55373;BME280;70018;47.838;16.490;2023-12-22T09:18:36;97538.38;;;7.17;56.14
55373;BME280;70018;47.838;16.490;2023-12-22T09:21:03;97521.47;;;6.97;56.87
55373;BME280;70018;47.838;16.490;2023-12-22T09:23:30;97546.78;;;6.80;57.38
55373;BME280;70018;47.838;16.490;2023-12-22T09:25:58;97538.91;;;6.68;57.23
55373;BME280;70018;47.838;16.490;2023-12-22T09:28:25;97541.97;;;6.56;58.27
55373;BME280;70018;47.838;16.490;2023-12-22T09:30:52;97543.53;;;6.57;57.41
55373;BME280;70018;47.838;16.490;2023-12-22T09:33:19;97559.81;;;7.00;56.37
55373;BME280;70018;47.838;16.490;2023-12-22T09:35:46;97541.19;;;7.38;56.50
55373;BME280;70018;47.838;16.490;2023-12-22T09:38:13;97527.59;;;7.69;56.83
55373;BME280;70018;47.838;16.490;2023-12-22T09:40:40;97536.53;;;7.52;56.11
55373;BME280;70018;47.838;16.490;2023-12-22T09:43:07;97546.31;;;7.43;55.80
55373;BME280;70018;47.838;16.490;2023-12-22T09:45:35;97545.53;;;7.49;55.15
55373;BME280;70018;47.838;16.490;2023-12-22T09:48:05;97561.88;;;7.28;52.43
55373;BME280;70018;47.838;16.490;2023-12-22T09:50:33;97559.53;;;7.27;56.23
55373;BME280;70018;47.838;16.490;2023-12-22T09:53:01;97567.72;;;7.23;55.00
55373;BME280;70018;47.838;16.490;2023-12-22T09:55:31;97536.03;;;7.15;54.26
55373;BME280;70018;47.838;16.490;2023-12-22T09:58:01;97530.47;;;7.01;54.79
55373;BME280;70018;47.838;16.490;2023-12-22T10:00:29;97550.41;;;6.98;51.79
55373;BME280;70018;47.838;16.490;2023-12-22T10:02:57;97551.94;;;6.92;52.94
55373;BME280;70018;47.838;16.490;2023-12-22T10:05:24;97533.22;;;7.01;54.61
55373;BME280;70018;47.838;16.490;2023-12-22T10:07:52;97556.28;;;7.00;55.51
55373;BME280;70018;47.838;16.490;2023-12-22T10:10:21;97555.06;;;6.94;55.61
55373;BME280;70018;47.838;16.490;2023-12-22T10:12:49;97553.94;;;7.05;55.74
55373;BME280;70018;47.838;16.490;2023-12-22T10:15:19;97552.78;;;7.03;53.62
55373;BME280;70018;47.838;16.490;2023-12-22T10:17:51;97533.19;;;6.90;55.14
55373;BME280;70018;47.838;16.490;2023-12-22T10:20:19;97564.81;;;6.91;54.54
55373;BME280;70018;47.838;16.490;2023-12-22T10:22:46;97558.19;;;6.96;54.60
55373;BME280;70018;47.838;16.490;2023-12-22T10:25:19;97557.88;;;7.04;56.19
55373;BME280;70018;47.838;16.490;2023-12-22T10:27:46;97577.44;;;7.10;52.79
55373;BME280;70018;47.838;16.490;2023-12-22T10:30:14;97577.44;;;7.13;54.59
55373;BME280;70018;47.838;16.490;2023-12-22T10:32:41;97573.53;;;7.11;54.27
55373;BME280;70018;47.838;16.490;2023-12-22T10:35:11;97554.34;;;7.04;54.04
55373;BME280;70018;47.838;16.490;2023-12-22T10:37:39;97575.84;;;7.02;55.54
55373;BME280;70018;47.838;16.490;2023-12-22T10:40:08;97548.47;;;7.05;55.17
55373;BME280;70018;47.838;16.490;2023-12-22T10:42:35;97586.34;;;6.96;53.66
55373;BME280;70018;47.838;16.490;2023-12-22T10:45:03;97575.41;;;6.93;53.80
55373;BME280;70018;47.838;16.490;2023-12-22T10:47:29;97570.31;;;6.91;53.65
55373;BME280;70018;47.838;16.490;2023-12-22T10:49:56;97528.59;;;7.12;54.25
55373;BME280;70018;47.838;16.490;2023-12-22T10:52:23;97528.91;;;7.03;54.99
55373;BME280;70018;47.838;16.490;2023-12-22T10:54:50;97535.16;;;6.97;54.51
55373;BME280;70018;47.838;16.490;2023-12-22T10:57:17;97551.59;;;7.00;54.93
55373;BME280;70018;47.838;16.490;2023-12-22T10:59:47;97562.13;;;6.95;54.94
55373;BME280;70018;47.838;16.490;2023-12-22T11:02:27;97559.41;;;7.05;55.39
55373;BME280;70018;47.838;16.490;2023-12-22T11:05:01;97551.59;;;7.00;55.59
55373;BME280;70018;47.838;16.490;2023-12-22T11:07:29;97576.97;;;6.90;54.49
55373;BME280;70018;47.838;16.490;2023-12-22T11:09:57;97551.53;;;6.93;56.30
55373;BME280;70018;47.838;16.490;2023-12-22T11:12:28;97554.38;;;7.07;54.74
55373;BME280;70018;47.838;16.490;2023-12-22T11:14:56;97508.66;;;7.15;56.22
55373;BME280;70018;47.838;16.490;2023-12-22T11:17:25;97550.84;;;7.07;55.17
55373;BME280;70018;47.838;16.490;2023-12-22T11:19:53;97573.81;;;6.92;54.56
55373;BME280;70018;47.838;16.490;2023-12-22T11:22:21;97553.78;;;6.74;54.60
55373;BME280;70018;47.838;16.490;2023-12-22T11:24:49;97554.16;;;6.72;56.06
55373;BME280;70018;47.838;16.490;2023-12-22T11:27:20;97542.78;;;6.63;54.29
55373;BME280;70018;47.838;16.490;2023-12-22T11:29:47;97552.91;;;6.59;55.63
55373;BME280;70018;47.838;16.490;2023-12-22T11:32:18;97542.84;;;6.70;56.44
55373;BME280;70018;47.838;16.490;2023-12-22T11:34:46;97523.78;;;6.88;55.52
55373;BME280;70018;47.838;16.490;2023-12-22T11:37:15;97558.09;;;7.64;54.28
55373;BME280;70018;47.838;16.490;2023-12-22T11:39:43;97531.16;;;7.95;52.45
55373;BME280;70018;47.838;16.490;2023-12-22T11:42:15;97547.16;;;7.86;53.78
55373;BME280;70018;47.838;16.490;2023-12-22T11:44:43;97554.59;;;7.67;53.71
55373;BME280;70018;47.838;16.490;2023-12-22T11:47:10;97554.53;;;7.43;54.99
55373;BME280;70018;47.838;16.490;2023-12-22T11:49:40;97526.00;;;7.61;55.68
55373;BME280;70018;47.838;16.490;2023-12-22T11:52:11;97538.13;;;7.64;52.94
55373;BME280;70018;47.838;16.490;2023-12-22T11:54:49;97527.53;;;7.55;53.13
55373;BME280;70018;47.838;16.490;2023-12-22T11:59:57;97512.00;;;8.30;52.47
55373;BME280;70018;47.838;16.490;2023-12-22T12:02:24;97542.91;;;8.48;49.49
55373;BME280;70018;47.838;16.490;2023-12-22T12:04:52;97539.00;;;8.67;49.09
55373;BME280;70018;47.838;16.490;2023-12-22T12:10:12;97537.00;;;8.78;51.32
55373;BME280;70018;47.838;16.490;2023-12-22T12:12:38;97501.78;;;8.09;53.71
55373;BME280;70018;47.838;16.490;2023-12-22T12:15:18;97497.84;;;7.71;55.63
55373;BME280;70018;47.838;16.490;2023-12-22T12:17:48;97483.66;;;7.20;56.06
55373;BME280;70018;47.838;16.490;2023-12-22T12:20:16;97480.38;;;6.83;55.57
55373;BME280;70018;47.838;16.490;2023-12-22T12:22:43;97450.97;;;6.66;56.34
55373;BME280;70018;47.838;16.490;2023-12-22T12:25:10;97481.81;;;6.56;56.13
55373;BME280;70018;47.838;16.490;2023-12-22T12:28:05;97477.88;;;6.57;54.93
55373;BME280;70018;47.838;16.490;2023-12-22T12:30:33;97472.47;;;6.67;55.24
55373;BME280;70018;47.838;16.490;2023-12-22T12:33:12;97460.78;;;6.70;53.96
55373;BME280;70018;47.838;16.490;2023-12-22T12:35:41;97460.78;;;6.74;54.53
55373;BME280;70018;47.838;16.490;2023-12-22T12:38:17;97480.31;;;6.76;53.86
55373;BME280;70018;47.838;16.490;2023-12-22T12:40:45;97470.97;;;6.77;53.72
55373;BME280;70018;47.838;16.490;2023-12-22T12:43:12;97467.81;;;6.75;54.26
55373;BME280;70018;47.838;16.490;2023-12-22T12:45:40;97470.13;;;6.69;54.33
55373;BME280;70018;47.838;16.490;2023-12-22T12:48:07;97456.84;;;6.68;55.22
55373;BME280;70018;47.838;16.490;2023-12-22T12:50:34;97449.78;;;6.60;55.31
55373;BME280;70018;47.838;16.490;2023-12-22T12:53:05;97454.47;;;6.59;56.23
55373;BME280;70018;47.838;16.490;2023-12-22T12:55:32;97475.53;;;6.55;56.36
55373;BME280;70018;47.838;16.490;2023-12-22T12:57:59;97464.22;;;6.57;56.83
55373;BME280;70018;47.838;16.490;2023-12-22T13:00:31;97464.59;;;6.55;56.89
55373;BME280;70018;47.838;16.490;2023-12-22T13:03:03;97453.25;;;6.49;57.31
55373;BME280;70018;47.838;16.490;2023-12-22T13:05:31;97469.25;;;6.47;57.15
55373;BME280;70018;47.838;16.490;2023-12-22T13:08:08;97461.38;;;6.39;57.49
55373;BME280;70018;47.838;16.490;2023-12-22T13:10:36;97469.22;;;6.40;57.40
55373;BME280;70018;47.838;16.490;2023-12-22T13:13:03;97459.81;;;6.38;57.38
55373;BME280;70018;47.838;16.490;2023-12-22T13:15:30;97468.38;;;6.36;57.59